Time;durP1;ratioP1;P1;durP2;ratioP2;P2;SDS_P1;SDS_P2;PMS_P1;PMS_P2;Temp;Humidity;BMP_temperature;BMP_pressure;BME280_temperature;BME280_humidity;BME280_pressure;Samples;Min_cycle;Max_cycle;Signal;HPM_P1;HPM_P2
2022/10/05 00:00:54;;;;;;;14.52;5.50;;;6.90;99.90;;;;;;5216307;28;19905;-75
2022/10/05 00:03:35;;;;;;;10.45;4.47;;;6.90;99.90;;;;;;5216912;28;20059;-74
2022/10/05 00:06:11;;;;;;;10.30;4.13;;;6.90;99.90;;;;;;5182808;28;20092;-76
2022/10/05 00:08:42;;;;;;;12.50;4.50;;;6.80;99.90;;;;;;5201453;28;20027;-74
2022/10/05 00:11:15;;;;;;;9.50;4.85;;;6.80;99.90;;;;;;5234085;28;20464;-76
2022/10/05 00:13:49;;;;;;;8.25;4.70;;;6.80;99.90;;;;;;5226484;28;20370;-76
2022/10/05 00:16:22;;;;;;;9.70;4.43;;;6.80;99.90;;;;;;5198348;28;20029;-78
2022/10/05 00:18:58;;;;;;;10.30;4.20;;;6.80;99.90;;;;;;5216192;28;20032;-74
2022/10/05 00:21:37;;;;;;;10.45;4.68;;;6.80;99.90;;;;;;5213603;28;20037;-75
2022/10/05 00:24:17;;;;;;;9.15;4.70;;;6.80;99.90;;;;;;5215977;28;20028;-75
2022/10/05 00:26:54;;;;;;;8.70;5.20;;;6.70;99.90;;;;;;5216535;28;20039;-76
2022/10/05 00:29:25;;;;;;;8.65;5.05;;;6.70;99.90;;;;;;5208655;28;20025;-74
2022/10/05 00:31:56;;;;;;;8.85;4.60;;;6.80;99.90;;;;;;5209844;28;20430;-74
2022/10/05 00:34:27;;;;;;;8.98;4.68;;;6.70;99.90;;;;;;5234449;28;20032;-75
2022/10/05 00:36:59;;;;;;;11.32;4.40;;;6.70;99.90;;;;;;5201743;28;20029;-74
2022/10/05 00:39:31;;;;;;;5.32;3.67;;;6.70;99.90;;;;;;5217586;28;20329;-76
2022/10/05 00:42:17;;;;;;;5.70;3.42;;;6.70;99.90;;;;;;5218997;28;20043;-76
2022/10/05 00:44:58;;;;;;;7.28;3.55;;;6.70;99.90;;;;;;5193229;28;20521;-76
2022/10/05 00:47:49;;;;;;;7.82;4.53;;;6.60;99.90;;;;;;5197724;28;20036;-74
2022/10/05 00:50:57;;;;;;;6.22;3.95;;;6.60;99.90;;;;;;5205821;28;20382;-74
2022/10/05 00:53:53;;;;;;;9.23;3.70;;;6.60;99.90;;;;;;5184899;28;20040;-77
2022/10/05 00:56:56;;;;;;;7.38;4.18;;;6.60;99.90;;;;;;5198104;28;20028;-75
2022/10/05 00:59:45;;;;;;;6.22;3.30;;;6.50;99.90;;;;;;5152096;28;20046;-76
2022/10/05 01:02:42;;;;;;;5.57;2.72;;;6.60;99.90;;;;;;5152419;28;20033;-76
2022/10/05 01:06:04;;;;;;;6.05;2.78;;;6.60;99.90;;;;;;5143890;28;20328;-76
2022/10/05 01:09:02;;;;;;;3.40;2.47;;;6.60;99.90;;;;;;5152960;28;20267;-75
2022/10/05 01:11:57;;;;;;;4.47;2.95;;;6.60;99.90;;;;;;5132410;28;20042;-76
2022/10/05 01:14:29;;;;;;;5.13;2.47;;;6.50;99.90;;;;;;5135167;28;20062;-75
2022/10/05 01:17:00;;;;;;;3.88;3.05;;;6.50;99.90;;;;;;5142322;28;20048;-76
2022/10/05 01:19:49;;;;;;;5.40;2.83;;;6.40;99.90;;;;;;5133279;28;20046;-74
2022/10/05 01:22:45;;;;;;;3.53;2.67;;;6.50;99.90;;;;;;5152427;28;20026;-75
2022/10/05 01:25:41;;;;;;;5.20;2.78;;;6.40;99.90;;;;;;5128361;28;20042;-75
2022/10/05 01:28:15;;;;;;;3.45;2.90;;;6.40;99.90;;;;;;5150829;28;20034;-74
2022/10/05 01:31:13;;;;;;;2.95;2.55;;;6.30;99.90;;;;;;5151873;28;20173;-75
2022/10/05 01:33:55;;;;;;;5.28;2.42;;;6.30;99.90;;;;;;5152343;28;20038;-75
2022/10/05 01:36:45;;;;;;;4.30;2.25;;;6.30;99.90;;;;;;5191021;28;20040;-76
2022/10/05 01:39:35;;;;;;;2.80;2.13;;;6.40;99.90;;;;;;5220938;28;20037;-75
2022/10/05 01:42:09;;;;;;;3.17;2.40;;;6.40;99.90;;;;;;5239463;28;20017;-75
2022/10/05 01:44:55;;;;;;;;;;;6.30;99.90;;;;;;5226608;28;20023;-75
2022/10/05 01:48:07;;;;;;;2.92;2.53;;;6.40;99.90;;;;;;5201375;28;19946;-74
2022/10/05 01:50:53;;;;;;;6.18;2.80;;;6.40;99.90;;;;;;5191336;28;20039;-75
2022/10/05 01:53:34;;;;;;;5.35;2.83;;;6.30;99.90;;;;;;5217883;28;20557;-76
2022/10/05 01:56:10;;;;;;;5.82;2.30;;;6.20;99.90;;;;;;5218197;28;20033;-76
2022/10/05 01:59:15;;;;;;;3.67;2.75;;;6.20;99.90;;;;;;5218064;28;20043;-75
2022/10/05 02:02:03;;;;;;;3.95;2.72;;;6.10;99.90;;;;;;5192546;28;20032;-74
2022/10/05 02:05:00;;;;;;;3.78;2.85;;;6.00;99.90;;;;;;5191636;28;20045;-77
2022/10/05 02:07:48;;;;;;;4.18;2.42;;;6.00;99.90;;;;;;5217985;28;20029;-75
2022/10/05 02:10:29;;;;;;;4.03;2.50;;;6.00;99.90;;;;;;5211145;28;20034;-74
2022/10/05 02:13:26;;;;;;;3.80;3.22;;;5.90;99.90;;;;;;5219339;28;20024;-75
2022/10/05 02:16:15;;;;;;;6.18;3.00;;;5.90;99.90;;;;;;5207677;28;20043;-75
2022/10/05 02:18:55;;;;;;;4.65;2.47;;;5.80;99.90;;;;;;5218376;28;20504;-75
2022/10/05 02:21:33;;;;;;;4.65;2.35;;;5.90;99.90;;;;;;5219104;28;20329;-76
2022/10/05 02:24:10;;;;;;;5.13;3.00;;;5.90;99.90;;;;;;5217711;28;20039;-76
2022/10/05 02:26:45;;;;;;;4.00;2.45;;;5.90;99.90;;;;;;5218069;28;20075;-75
2022/10/05 02:29:24;;;;;;;5.00;2.60;;;5.90;99.90;;;;;;5218016;28;20535;-76
2022/10/05 02:32:09;;;;;;;4.85;2.22;;;5.90;99.90;;;;;;5200676;28;20466;-76
2022/10/05 02:34:43;;;;;;;3.55;2.67;;;5.80;99.90;;;;;;5198637;28;20040;-75
2022/10/05 02:37:17;;;;;;;4.25;2.80;;;5.80;99.90;;;;;;5199366;28;20216;-77
2022/10/05 02:40:14;;;;;;;4.32;2.30;;;5.90;99.90;;;;;;5192969;28;20040;-74
2022/10/05 02:43:15;;;;;;;4.28;2.47;;;6.00;99.90;;;;;;5237900;28;20063;-75
2022/10/05 02:46:08;;;;;;;4.20;2.30;;;5.80;99.90;;;;;;5216687;28;20062;-75
2022/10/05 02:49:00;;;;;;;5.15;2.08;;;5.90;99.90;;;;;;5200549;28;20024;-76
2022/10/05 02:52:16;;;;;;;5.43;2.63;;;5.80;99.90;;;;;;5219624;28;20031;-75
2022/10/05 02:55:15;;;;;;;4.40;2.40;;;5.90;99.90;;;;;;5198743;28;20045;-74
2022/10/05 02:58:25;;;;;;;5.07;2.70;;;6.00;99.90;;;;;;5210035;28;20020;-74
2022/10/05 03:01:09;;;;;;;7.22;2.67;;;5.90;99.90;;;;;;5123565;28;20050;-76
2022/10/05 03:03:54;;;;;;;2.83;2.17;;;5.90;99.90;;;;;;5106006;29;20035;-76
2022/10/05 03:06:31;;;;;;;4.65;2.47;;;5.80;99.90;;;;;;5206533;28;20044;-76
2022/10/05 03:09:06;;;;;;;3.08;2.45;;;5.80;99.90;;;;;;5187448;28;20029;-76
2022/10/05 03:11:59;;;;;;;3.97;2.75;;;5.70;99.90;;;;;;5212020;28;20437;-76
2022/10/05 03:14:45;;;;;;;5.10;2.80;;;5.70;99.90;;;;;;5235497;28;20035;-75
2022/10/05 03:17:36;;;;;;;4.18;2.92;;;5.70;99.90;;;;;;5199337;28;20032;-76
2022/10/05 03:20:45;;;;;;;4.18;2.35;;;5.70;99.90;;;;;;5217261;28;20032;-78
2022/10/05 03:23:34;;;;;;;4.45;2.60;;;5.70;99.90;;;;;;5217030;28;20634;-75
2022/10/05 03:26:30;;;;;;;4.20;2.53;;;5.70;99.90;;;;;;5198678;28;20029;-77
2022/10/05 03:29:10;;;;;;;5.07;2.40;;;5.70;99.90;;;;;;5198158;28;20112;-77
2022/10/05 03:31:56;;;;;;;4.22;2.50;;;5.70;99.90;;;;;;5197889;28;20083;-75
2022/10/05 03:34:34;;;;;;;4.07;2.35;;;5.60;99.90;;;;;;5217630;28;20382;-78
2022/10/05 03:37:38;;;;;;;3.80;2.22;;;5.60;99.90;;;;;;5241017;28;20024;-77
2022/10/05 03:40:37;;;;;;;3.60;2.60;;;5.70;99.90;;;;;;5239596;28;20047;-76
2022/10/05 03:43:24;;;;;;;3.42;2.60;;;5.60;99.90;;;;;;5222979;28;20028;-76
2022/10/05 03:46:35;;;;;;;4.50;3.40;;;5.70;99.90;;;;;;5236044;28;20223;-76
2022/10/05 03:49:26;;;;;;;4.15;2.47;;;5.60;99.90;;;;;;5202181;28;20051;-76
2022/10/05 03:52:09;;;;;;;3.22;2.53;;;5.60;99.90;;;;;;5198346;28;20031;-77
2022/10/05 03:54:49;;;;;;;4.32;2.80;;;5.60;99.90;;;;;;5215772;28;20017;-77
2022/10/05 03:57:27;;;;;;;4.53;2.60;;;5.50;99.90;;;;;;5216058;28;20033;-77
2022/10/05 04:00:18;;;;;;;4.53;2.33;;;5.50;99.90;;;;;;5215174;28;20041;-76
2022/10/05 04:03:18;;;;;;;5.53;2.70;;;5.40;99.90;;;;;;5217392;28;20032;-76
2022/10/05 04:05:54;;;;;;;3.22;2.33;;;5.40;99.90;;;;;;5189819;28;20060;-76
2022/10/05 04:08:54;;;;;;;4.97;2.72;;;5.30;99.90;;;;;;5184026;28;20255;-76
2022/10/05 04:11:34;;;;;;;6.05;2.65;;;5.30;99.90;;;;;;5214602;28;20047;-77
2022/10/05 04:14:13;;;;;;;3.97;2.70;;;5.40;99.90;;;;;;5229898;28;20017;-77
2022/10/05 04:16:50;;;;;;;2.70;2.40;;;5.40;99.90;;;;;;5178029;28;20037;-77
2022/10/05 04:19:35;;;;;;;4.10;3.30;;;5.30;99.90;;;;;;5194751;28;20033;-77
2022/10/05 04:22:16;;;;;;;3.30;2.50;;;5.20;99.90;;;;;;5195003;28;20025;-77
2022/10/05 04:24:50;;;;;;;4.00;2.67;;;5.20;99.90;;;;;;5207033;28;20077;-76
2022/10/05 04:27:38;;;;;;;5.15;2.92;;;5.30;99.90;;;;;;5219431;28;20043;-76
2022/10/05 04:30:16;;;;;;;4.15;2.60;;;5.20;99.90;;;;;;5200681;28;20051;-77
2022/10/05 04:32:58;;;;;;;4.70;2.88;;;5.20;99.90;;;;;;5221527;28;20067;-76
2022/10/05 04:35:37;;;;;;;3.47;2.38;;;5.20;99.90;;;;;;5218946;28;20029;-76
2022/10/05 04:38:38;;;;;;;8.85;3.00;;;5.20;99.90;;;;;;5198448;28;20021;-77
2022/10/05 04:41:58;;;;;;;3.60;2.58;;;5.30;99.90;;;;;;5198805;28;20037;-77
2022/10/05 04:45:03;;;;;;;3.58;2.78;;;5.30;99.90;;;;;;5193965;28;20029;-78
2022/10/05 04:48:07;;;;;;;5.15;3.10;;;5.20;99.90;;;;;;5207065;28;20014;-78
2022/10/05 04:51:06;;;;;;;4.82;2.63;;;5.20;99.90;;;;;;5207512;28;20338;-77
2022/10/05 04:53:52;;;;;;;5.07;2.80;;;5.20;99.90;;;;;;5215333;28;20021;-77
2022/10/05 04:56:29;;;;;;;7.70;3.10;;;5.20;99.90;;;;;;5208502;28;20037;-76
2022/10/05 04:59:13;;;;;;;5.53;3.10;;;5.10;99.90;;;;;;5197270;28;20336;-76
2022/10/05 05:02:05;;;;;;;3.58;3.13;;;5.10;99.90;;;;;;5201870;28;20021;-77
2022/10/05 05:05:00;;;;;;;7.28;2.80;;;5.10;99.90;;;;;;5214006;28;20049;-77
2022/10/05 05:07:39;;;;;;;4.43;2.90;;;5.20;99.90;;;;;;5218322;28;20033;-77
2022/10/05 05:10:43;;;;;;;5.90;3.28;;;5.30;99.90;;;;;;5211746;28;20031;-77
2022/10/05 05:13:32;;;;;;;5.13;2.47;;;5.20;99.90;;;;;;5225207;28;20028;-77
2022/10/05 05:16:21;;;;;;;4.82;3.00;;;5.20;99.90;;;;;;5201211;28;20025;-77
2022/10/05 05:19:34;;;;;;;4.53;2.80;;;5.10;99.90;;;;;;5203379;28;20363;-78
2022/10/05 05:22:10;;;;;;;8.82;3.17;;;5.30;99.90;;;;;;5221578;28;20195;-77
2022/10/05 05:24:50;;;;;;;10.88;4.78;;;5.50;99.90;;;;;;5222525;28;20029;-77
2022/10/05 05:27:46;;;;;;;6.10;4.13;;;5.50;99.90;;;;;;5191360;28;20035;-77
2022/10/05 05:30:42;;;;;;;8.73;3.33;;;5.60;99.90;;;;;;5228029;28;20024;-77
2022/10/05 05:33:24;;;;;;;4.22;3.50;;;5.60;99.90;;;;;;5230168;28;20039;-77
2022/10/05 05:35:55;;;;;;;8.73;3.38;;;5.70;99.90;;;;;;5204119;28;20352;-78
2022/10/05 05:38:41;;;;;;;6.05;4.32;;;5.90;99.90;;;;;;5228633;28;20020;-77
2022/10/05 05:41:21;;;;;;;5.25;3.80;;;6.10;99.90;;;;;;5219273;28;20036;-77
2022/10/05 05:44:01;;;;;;;8.73;4.18;;;6.10;99.90;;;;;;5218226;28;20023;-76
2022/10/05 05:46:37;;;;;;;8.68;3.70;;;6.20;99.90;;;;;;5220508;28;20045;-75
2022/10/05 05:49:27;;;;;;;6.88;3.35;;;6.40;99.90;;;;;;5218117;28;20029;-77
2022/10/05 05:52:12;;;;;;;6.45;4.38;;;6.50;99.90;;;;;;5223775;28;20029;-75
2022/10/05 05:55:05;;;;;;;6.18;4.03;;;6.70;99.90;;;;;;5216104;28;20033;-74
2022/10/05 05:57:42;;;;;;;4.30;3.67;;;6.80;99.90;;;;;;5187607;28;20024;-74
2022/10/05 06:00:26;;;;;;;6.80;3.88;;;6.90;99.90;;;;;;5220189;28;20051;-74
2022/10/05 06:03:08;;;;;;;4.18;3.75;;;7.10;99.90;;;;;;5218546;28;20027;-76
2022/10/05 06:05:59;;;;;;;5.90;4.18;;;7.40;99.90;;;;;;5179025;28;20060;-77
2022/10/05 06:08:59;;;;;;;5.13;4.07;;;7.70;99.90;;;;;;5220467;28;20025;-74
2022/10/05 06:11:41;;;;;;;7.07;4.15;;;8.10;99.90;;;;;;5242788;28;20016;-75
2022/10/05 06:14:26;;;;;;;7.50;4.05;;;8.50;99.90;;;;;;5235900;28;20442;-75
2022/10/05 06:17:18;;;;;;;6.28;4.25;;;8.80;99.90;;;;;;5203413;28;20037;-76
2022/10/05 06:19:56;;;;;;;5.88;3.70;;;8.90;99.90;;;;;;5209209;28;20041;-77
2022/10/05 06:22:41;;;;;;;7.75;3.90;;;9.20;99.90;;;;;;5219767;28;20036;-74
2022/10/05 06:25:52;;;;;;;4.68;3.42;;;9.50;99.90;;;;;;5219621;28;20166;-75
2022/10/05 06:28:28;;;;;;;6.03;3.50;;;9.90;99.90;;;;;;5184911;28;20043;-75
2022/10/05 06:31:20;;;;;;;5.00;3.28;;;9.90;99.90;;;;;;5201361;28;20041;-74
2022/10/05 06:33:52;;;;;;;4.10;3.30;;;10.20;99.90;;;;;;5164243;28;20037;-75
2022/10/05 06:36:26;;;;;;;7.72;3.67;;;10.30;99.90;;;;;;5203993;28;20250;-76
2022/10/05 06:39:16;;;;;;;6.22;3.45;;;10.50;99.90;;;;;;5221277;28;20071;-76
2022/10/05 06:42:12;;;;;;;6.60;3.42;;;10.80;99.90;;;;;;5218653;28;20028;-75
2022/10/05 06:44:52;;;;;;;4.90;3.67;;;10.70;99.90;;;;;;5201720;28;20338;-75
2022/10/05 06:47:35;;;;;;;7.65;4.00;;;10.80;99.90;;;;;;5220275;28;20017;-76
2022/10/05 06:50:41;;;;;;;7.82;4.43;;;11.30;99.90;;;;;;5202756;28;20041;-76
2022/10/05 06:53:21;;;;;;;7.22;3.50;;;11.60;99.90;;;;;;5220724;28;20017;-77
2022/10/05 06:56:04;;;;;;;6.97;3.72;;;11.80;99.90;;;;;;5220053;28;20063;-76
2022/10/05 06:59:07;;;;;;;5.53;4.20;;;11.90;99.90;;;;;;5220925;28;20017;-77
2022/10/05 07:02:03;;;;;;;10.48;5.55;;;11.90;99.90;;;;;;5200547;28;20035;-75
2022/10/05 07:04:52;;;;;;;7.88;4.80;;;12.00;99.90;;;;;;5188667;28;20431;-75
2022/10/05 07:07:51;;;;;;;8.27;4.20;;;12.30;99.90;;;;;;5200557;28;20032;-75
2022/10/05 07:10:32;;;;;;;8.35;5.18;;;12.80;99.90;;;;;;5222731;28;20454;-75
2022/10/05 07:13:34;;;;;;;6.28;4.88;;;13.20;99.90;;;;;;5235983;28;20051;-77
2022/10/05 07:16:31;;;;;;;9.55;4.93;;;13.20;99.90;;;;;;5219084;28;20356;-78
2022/10/05 07:19:09;;;;;;;7.57;4.90;;;13.30;99.90;;;;;;5181692;28;20033;-75
2022/10/05 07:21:49;;;;;;;8.65;4.97;;;13.50;99.90;;;;;;5199624;28;20021;-75
2022/10/05 07:24:28;;;;;;;6.80;5.38;;;13.60;99.90;;;;;;5200536;28;20043;-75
2022/10/05 07:27:02;;;;;;;7.10;4.38;;;13.80;99.90;;;;;;5216287;28;20037;-76
2022/10/05 07:29:46;;;;;;;5.78;4.65;;;13.90;99.90;;;;;;5218081;28;20095;-77
2022/10/05 07:32:30;;;;;;;10.07;4.80;;;14.10;99.90;;;;;;5196157;28;20185;-74
2022/10/05 07:38:31;;;;;;;8.50;4.30;;;14.20;99.90;;;;;;5210826;28;20028;-75
2022/10/05 07:41:15;;;;;;;5.25;3.78;;;14.30;99.90;;;;;;5236444;28;20024;-75
2022/10/05 07:44:11;;;;;;;5.32;4.63;;;14.50;99.90;;;;;;5225117;28;20039;-75
2022/10/05 07:46:47;;;;;;;4.70;3.40;;;14.70;99.90;;;;;;5208022;28;20028;-75
2022/10/05 07:49:45;;;;;;;6.18;3.30;;;14.90;99.90;;;;;;5215596;28;20035;-76
2022/10/05 07:52:24;;;;;;;5.45;3.78;;;15.50;99.90;;;;;;5187438;28;20037;-75
2022/10/05 07:55:04;;;;;;;4.25;3.45;;;15.60;99.90;;;;;;5186204;28;20044;-75
2022/10/05 07:57:54;;;;;;;4.30;3.45;;;15.70;99.90;;;;;;5185676;28;20041;-74
2022/10/05 08:00:48;;;;;;;5.28;3.25;;;16.50;99.90;;;;;;5202191;28;20040;-77
2022/10/05 08:03:48;;;;;;;4.90;3.42;;;16.50;99.90;;;;;;5188471;28;20043;-76
2022/10/05 08:06:50;;;;;;;8.38;3.45;;;16.60;99.90;;;;;;5217826;28;20049;-78
2022/10/05 08:09:29;;;;;;;4.57;3.17;;;16.90;99.90;;;;;;5201802;28;20036;-75
2022/10/05 08:12:23;;;;;;;6.57;4.03;;;16.00;99.90;;;;;;5220063;28;20029;-76
2022/10/05 08:15:04;;;;;;;3.80;2.88;;;16.00;99.90;;;;;;5203122;28;20025;-75
2022/10/05 08:17:44;;;;;;;5.78;3.50;;;16.30;99.90;;;;;;5218538;28;20043;-76
2022/10/05 08:20:31;;;;;;;6.38;3.50;;;16.20;99.90;;;;;;5201853;28;20557;-76
2022/10/05 08:23:10;;;;;;;5.90;3.78;;;16.10;99.90;;;;;;5200771;28;20436;-75
2022/10/05 08:25:51;;;;;;;4.20;3.50;;;16.10;99.90;;;;;;5196669;28;20039;-76
2022/10/05 08:29:06;;;;;;;3.40;3.10;;;16.40;99.90;;;;;;5194532;28;20029;-78
2022/10/05 08:31:42;;;;;;;3.25;2.95;;;16.50;99.90;;;;;;5223248;28;20009;-76
2022/10/05 08:37:52;;;;;;;4.47;3.10;;;17.50;99.90;;;;;;5132392;28;20039;-75
2022/10/05 08:40:59;;;;;;;5.75;2.97;;;18.10;99.90;;;;;;5137950;28;20290;-76
2022/10/05 08:44:19;;;;;;;4.15;2.60;;;18.30;99.90;;;;;;5134657;28;20041;-75
2022/10/05 08:47:32;;;;;;;4.07;2.80;;;18.60;99.90;;;;;;5101981;29;20046;-75
2022/10/05 08:50:11;;;;;;;3.92;2.78;;;18.40;99.90;;;;;;5032784;29;20607;-76
2022/10/05 08:53:16;;;;;;;6.70;4.38;;;18.90;99.90;;;;;;5033537;29;20123;-76
2022/10/05 08:55:54;;;;;;;7.53;3.42;;;19.20;99.90;;;;;;5031968;29;20483;-77
2022/10/05 08:58:52;;;;;;;2.85;2.58;;;19.00;99.90;;;;;;5037552;29;20037;-76
2022/10/05 09:01:37;;;;;;;6.40;3.25;;;19.20;99.90;;;;;;5033004;29;20045;-76
2022/10/05 09:04:34;;;;;;;8.02;3.42;;;19.30;99.90;;;;;;5028172;29;20053;-76
2022/10/05 09:07:39;;;;;;;4.45;2.70;;;19.40;99.90;;;;;;5016830;29;20068;-75
2022/10/05 09:10:29;;;;;;;5.15;2.97;;;19.40;99.90;;;;;;5017767;29;20037;-76
2022/10/05 09:13:03;;;;;;;6.82;2.90;;;18.90;99.90;;;;;;5018514;29;20555;-76
2022/10/05 09:16:07;;;;;;;3.95;2.53;;;18.90;99.90;;;;;;5064910;29;20039;-76
2022/10/05 09:18:44;;;;;;;5.50;2.78;;;19.30;99.90;;;;;;5057955;29;20047;-75
2022/10/05 09:21:34;;;;;;;3.17;2.90;;;18.70;99.90;;;;;;5114230;28;20042;-75
2022/10/05 09:24:28;;;;;;;4.38;3.30;;;19.00;99.90;;;;;;5176010;28;20047;-76
2022/10/05 09:27:14;;;;;;;7.57;3.38;;;19.00;99.90;;;;;;5192672;28;20041;-76
2022/10/05 09:30:01;;;;;;;5.80;2.72;;;19.60;99.90;;;;;;5158968;28;20033;-76
2022/10/05 09:32:51;;;;;;;3.63;2.90;;;20.10;99.90;;;;;;5196561;28;20481;-77
2022/10/05 09:35:25;;;;;;;4.10;2.50;;;20.70;99.90;;;;;;5234217;28;20016;-76
2022/10/05 09:38:07;;;;;;;6.97;2.88;;;20.70;99.90;;;;;;5188498;28;20036;-76
2022/10/05 09:41:07;;;;;;;4.05;2.80;;;21.00;99.90;;;;;;5203436;28;20033;-76
2022/10/05 09:43:57;;;;;;;4.50;3.15;;;21.20;99.90;;;;;;5167985;28;20036;-76
2022/10/05 09:46:38;;;;;;;3.35;2.58;;;21.10;99.90;;;;;;5214366;28;20033;-77
2022/10/05 09:49:47;;;;;;;3.15;2.30;;;20.70;99.90;;;;;;5218742;28;20334;-77
2022/10/05 09:52:45;;;;;;;3.50;2.20;;;20.40;99.90;;;;;;5216205;28;20025;-76
2022/10/05 09:55:34;;;;;;;3.95;2.33;;;20.30;99.90;;;;;;5206387;28;20037;-76
2022/10/05 09:58:29;;;;;;;6.35;3.17;;;20.40;99.90;;;;;;5220528;28;20068;-76
2022/10/05 10:01:19;;;;;;;10.00;2.67;;;20.20;99.90;;;;;;5221872;28;20041;-75
2022/10/05 10:04:30;;;;;;;3.10;2.20;;;20.60;99.90;;;;;;5202667;28;20033;-75
2022/10/05 10:07:24;;;;;;;5.72;3.40;;;21.60;99.90;;;;;;5188728;28;20068;-75
2022/10/05 10:10:19;;;;;;;5.80;2.42;;;22.40;99.90;;;;;;5220054;28;20196;-76
2022/10/05 10:12:55;;;;;;;;;;;22.80;99.90;;;;;;5193435;28;20025;-76
2022/10/05 10:15:47;;;;;;;3.97;2.20;;;22.80;99.90;;;;;;5218301;28;19904;-76
2022/10/05 10:18:48;;;;;;;3.15;2.22;;;23.30;99.90;;;;;;5218661;28;20028;-78
2022/10/05 10:21:41;;;;;;;2.28;2.08;;;23.10;99.90;;;;;;5133194;28;20053;-76
2022/10/05 10:24:27;;;;;;;2.80;2.47;;;22.50;99.90;;;;;;5133713;28;20069;-76
2022/10/05 10:27:07;;;;;;;2.42;2.20;;;22.90;99.90;;;;;;5118373;28;20041;-78
2022/10/05 10:30:02;;;;;;;3.42;2.30;;;21.90;99.90;;;;;;5134620;28;20038;-76
2022/10/05 10:33:10;;;;;;;2.75;2.38;;;21.50;99.90;;;;;;5100694;28;20354;-75
2022/10/05 10:36:08;;;;;;;6.60;2.42;;;21.30;99.90;;;;;;5135274;28;20069;-76
2022/10/05 10:38:52;;;;;;;4.38;2.97;;;21.40;99.90;;;;;;5137741;28;20049;-76
2022/10/05 10:41:41;;;;;;;5.15;2.40;;;21.30;99.90;;;;;;5137321;28;20083;-75
2022/10/05 10:44:46;;;;;;;6.97;2.38;;;21.10;99.90;;;;;;5120015;28;20268;-77
2022/10/05 10:47:41;;;;;;;5.35;2.50;;;21.40;99.90;;;;;;5118177;28;20027;-77
2022/10/05 10:50:32;;;;;;;;;;;21.80;99.90;;;;;;5133943;28;20409;-75
2022/10/05 10:53:30;;;;;;;3.55;2.58;;;23.40;99.90;;;;;;5117088;28;19902;-75
2022/10/05 10:56:10;;;;;;;3.00;2.45;;;24.20;99.90;;;;;;5132690;28;20038;-75
2022/10/05 10:59:06;;;;;;;4.63;2.65;;;24.10;99.90;;;;;;5184473;28;20467;-75
2022/10/05 11:01:57;;;;;;;8.27;2.75;;;23.60;99.90;;;;;;5201209;28;20029;-76
2022/10/05 11:05:05;;;;;;;4.50;2.80;;;23.60;99.90;;;;;;5188128;28;20065;-77
2022/10/05 11:07:42;;;;;;;4.45;2.30;;;23.20;99.90;;;;;;5212019;28;20044;-77
2022/10/05 11:10:35;;;;;;;4.78;2.42;;;23.50;99.90;;;;;;5228707;28;20432;-76
2022/10/05 11:13:25;;;;;;;2.45;2.25;;;24.20;99.90;;;;;;5204290;28;20021;-76
2022/10/05 11:16:19;;;;;;;3.60;2.40;;;23.90;99.90;;;;;;5199481;28;20035;-77
2022/10/05 11:19:27;;;;;;;5.15;2.65;;;24.60;99.90;;;;;;5217790;28;20254;-76
2022/10/05 11:22:09;;;;;;;5.47;2.92;;;24.70;99.90;;;;;;5202249;28;20048;-76
2022/10/05 11:24:49;;;;;;;4.60;2.30;;;24.50;99.90;;;;;;5202430;28;20231;-75
2022/10/05 11:27:25;;;;;;;3.65;2.00;;;24.10;99.90;;;;;;5224359;28;20028;-76
2022/10/05 11:30:27;;;;;;;5.50;2.22;;;24.40;99.90;;;;;;5209916;28;20037;-76
2022/10/05 11:33:28;;;;;;;4.68;2.80;;;24.90;99.90;;;;;;5225361;28;20032;-76
2022/10/05 11:36:36;;;;;;;4.85;2.05;;;24.60;99.90;;;;;;5237665;28;20055;-75
2022/10/05 11:39:42;;;;;;;3.72;2.33;;;24.70;99.90;;;;;;5129473;28;20041;-76
2022/10/05 11:42:32;;;;;;;3.63;2.20;;;24.90;99.90;;;;;;5216337;28;20095;-77
2022/10/05 11:45:23;;;;;;;5.10;2.65;;;24.90;99.90;;;;;;5178606;28;20033;-77
2022/10/05 11:48:26;;;;;;;3.30;2.13;;;24.40;99.90;;;;;;5204439;28;20390;-76
2022/10/05 11:51:30;;;;;;;7.18;2.35;;;25.00;99.90;;;;;;5108187;29;20050;-78
2022/10/05 11:54:16;;;;;;;4.13;2.20;;;24.80;99.90;;;;;;5096900;29;20023;-76
2022/10/05 11:57:02;;;;;;;4.03;2.35;;;25.80;99.90;;;;;;5111275;29;20039;-77
2022/10/05 11:59:44;;;;;;;5.85;2.55;;;26.70;99.90;;;;;;5111399;29;20056;-78
2022/10/05 12:02:33;;;;;;;5.03;2.13;;;26.80;99.90;;;;;;5158577;28;20274;-77
2022/10/05 12:05:36;;;;;;;4.65;1.75;;;26.50;99.90;;;;;;5207070;28;20049;-76
2022/10/05 12:08:10;;;;;;;3.33;2.03;;;27.10;99.90;;;;;;5197984;28;20024;-77
2022/10/05 12:11:03;;;;;;;5.00;2.25;;;26.50;99.90;;;;;;5214135;28;20051;-75
2022/10/05 12:14:06;;;;;;;2.80;2.00;;;25.10;99.90;;;;;;5210019;28;20034;-75
2022/10/05 12:17:29;;;;;;;3.35;2.47;;;25.10;99.90;;;;;;5196402;28;20459;-76
2022/10/05 12:20:21;;;;;;;7.78;2.50;;;26.00;99.90;;;;;;5170217;28;20055;-76
2022/10/05 12:23:04;;;;;;;5.80;1.95;;;26.70;99.90;;;;;;5215969;28;20621;-76
2022/10/05 12:25:47;;;;;;;4.75;2.10;;;27.40;99.90;;;;;;5215783;28;20017;-76
2022/10/05 12:28:26;;;;;;;2.85;1.92;;;28.80;99.90;;;;;;5215879;28;20088;-76
2022/10/05 12:31:09;;;;;;;2.35;1.83;;;30.20;99.90;;;;;;5211664;28;20031;-76
2022/10/05 12:33:45;;;;;;;2.92;2.20;;;30.30;99.90;;;;;;5224837;28;20028;-77
2022/10/05 12:36:34;;;;;;;6.68;2.38;;;29.50;99.90;;;;;;5215294;28;20513;-76
2022/10/05 12:39:14;;;;;;;3.55;2.03;;;28.30;99.90;;;;;;5198993;28;20017;-75
2022/10/05 12:42:06;;;;;;;7.57;2.20;;;27.10;99.90;;;;;;5220527;28;20549;-75
2022/10/05 12:45:12;;;;;;;2.42;2.05;;;26.20;99.90;;;;;;5216248;28;20024;-75
2022/10/05 12:48:24;;;;;;;2.67;2.15;;;25.20;99.90;;;;;;5216914;28;20032;-77
2022/10/05 12:51:01;;;;;;;7.97;2.35;;;24.70;99.90;;;;;;5218758;28;20043;-77
2022/10/05 12:53:59;;;;;;;4.20;2.05;;;24.70;99.90;;;;;;5201763;28;20060;-74
2022/10/05 12:56:52;;;;;;;3.78;2.08;;;24.60;99.90;;;;;;5217000;28;20490;-76
2022/10/05 12:59:35;;;;;;;2.55;2.13;;;24.80;99.90;;;;;;5214808;28;20557;-76
2022/10/05 13:02:15;;;;;;;3.22;1.60;;;25.00;99.90;;;;;;5205115;28;20420;-75
2022/10/05 13:05:18;;;;;;;2.38;2.08;;;24.90;99.90;;;;;;5210083;28;20044;-76
2022/10/05 13:08:12;;;;;;;3.95;2.10;;;25.00;99.90;;;;;;5227610;28;20039;-75
2022/10/05 13:10:54;;;;;;;3.97;2.05;;;25.00;99.90;;;;;;5198172;28;20028;-76
2022/10/05 13:13:57;;;;;;;4.07;2.13;;;25.40;99.90;;;;;;5215156;28;20013;-76
2022/10/05 13:16:38;;;;;;;5.82;1.90;;;25.30;99.90;;;;;;5215063;28;20367;-74
2022/10/05 13:19:49;;;;;;;2.42;2.03;;;24.70;99.90;;;;;;5194941;28;20039;-76
2022/10/05 13:22:29;;;;;;;2.20;1.92;;;24.70;99.90;;;;;;5200933;28;20033;-76
2022/10/05 13:25:31;;;;;;;3.58;2.00;;;24.40;99.90;;;;;;5217987;28;20039;-76
2022/10/05 13:28:43;;;;;;;3.28;2.10;;;24.10;99.90;;;;;;5206682;28;20252;-75
2022/10/05 13:31:27;;;;;;;2.83;2.13;;;24.10;99.90;;;;;;5111866;28;20404;-75
2022/10/05 13:34:35;;;;;;;8.33;2.43;;;24.20;99.90;;;;;;5215633;28;20062;-74
2022/10/05 13:37:30;;;;;;;2.45;1.98;;;24.00;99.90;;;;;;5200760;28;20051;-77
2022/10/05 13:40:14;;;;;;;2.40;2.03;;;24.10;99.90;;;;;;5206909;28;20044;-74
2022/10/05 13:42:52;;;;;;;4.13;2.30;;;24.50;99.90;;;;;;5205714;28;20054;-76
2022/10/05 13:45:28;;;;;;;3.05;2.10;;;25.20;99.90;;;;;;5222423;28;20024;-76
2022/10/05 13:48:39;;;;;;;4.95;2.13;;;25.30;99.90;;;;;;5210429;28;20044;-76
2022/10/05 13:51:34;;;;;;;3.53;1.80;;;25.50;99.90;;;;;;5189477;28;20212;-75
2022/10/05 13:54:14;;;;;;;3.80;2.10;;;25.20;99.90;;;;;;5219867;28;20039;-75
2022/10/05 13:56:55;;;;;;;8.30;2.05;;;24.50;99.90;;;;;;5222144;28;20037;-76
2022/10/05 13:59:45;;;;;;;2.70;2.47;;;24.00;99.90;;;;;;5220321;28;20035;-75
2022/10/05 14:02:34;;;;;;;5.43;1.90;;;23.60;99.90;;;;;;5219900;28;20055;-75
2022/10/05 14:05:26;;;;;;;9.15;2.28;;;23.20;99.90;;;;;;5208555;28;20049;-74
2022/10/05 14:08:04;;;;;;;3.38;2.10;;;23.10;99.90;;;;;;5216757;28;20245;-77
2022/10/05 14:10:42;;;;;;;5.32;2.25;;;22.90;99.90;;;;;;5218678;28;20028;-76
2022/10/05 14:13:25;;;;;;;4.65;2.13;;;23.00;99.90;;;;;;5218405;28;20027;-76
2022/10/05 14:16:05;;;;;;;2.33;2.10;;;22.90;99.90;;;;;;5219859;28;20231;-76
2022/10/05 14:18:37;;;;;;;4.10;2.40;;;22.90;99.90;;;;;;5203216;28;20334;-76
2022/10/05 14:21:12;;;;;;;6.50;2.25;;;22.70;99.90;;;;;;5200923;28;20020;-76
2022/10/05 14:23:45;;;;;;;2.58;2.20;;;22.50;99.90;;;;;;5217123;28;20013;-77
2022/10/05 14:26:34;;;;;;;2.97;2.10;;;22.60;99.90;;;;;;5219404;28;20031;-77
2022/10/05 14:29:15;;;;;;;2.78;2.10;;;22.60;99.90;;;;;;5203848;28;20041;-76
2022/10/05 14:32:15;;;;;;;4.10;2.38;;;22.40;99.90;;;;;;5203564;28;20037;-76
2022/10/05 14:35:20;;;;;;;2.88;2.20;;;22.20;99.90;;;;;;5201423;28;20226;-77
2022/10/05 14:37:58;;;;;;;;;;;22.00;99.90;;;;;;5216519;28;20029;-75
2022/10/05 14:40:35;;;;;;;3.85;2.00;;;21.90;99.90;;;;;;5233919;28;19904;-76
2022/10/05 14:43:27;;;;;;;6.07;2.10;;;21.80;99.90;;;;;;5237886;28;20160;-76
2022/10/05 14:46:15;;;;;;;3.40;1.80;;;21.70;99.90;;;;;;5238894;28;20330;-75
2022/10/05 14:48:46;;;;;;;3.40;2.30;;;21.40;99.90;;;;;;5223660;28;20039;-75
2022/10/05 14:51:33;;;;;;;3.80;1.92;;;21.50;99.90;;;;;;5223581;28;20027;-75